Time;durP1;ratioP1;P1;durP2;ratioP2;P2;SDS_P1;SDS_P2;PMS_P1;PMS_P2;Temp;Humidity;BMP_temperature;BMP_pressure;BME280_temperature;BME280_humidity;BME280_pressure;Samples;Min_cycle;Max_cycle;Signal;HPM_P1;HPM_P2
2022/05/03 00:00:17;;;;;;;;;38.75;32.75;;;;;16.72;62.61;101506.34;5098109;27;45654;-79
2022/05/03 00:03:14;;;;;;;;;39.50;33.50;;;;;16.69;62.70;101506.31;5087682;27;47445;-79
2022/05/03 00:05:58;;;;;;;;;37.25;31.00;;;;;16.66;63.06;101500.97;5089516;27;45573;-79
2022/05/03 00:08:50;;;;;;;;;40.75;34.00;;;;;16.63;63.25;101497.44;5099960;27;45258;-80
2022/05/03 00:11:23;;;;;;;;;39.50;34.25;;;;;16.60;62.99;101489.44;5064843;27;45231;-80
2022/05/03 00:14:14;;;;;;;;;39.75;34.25;;;;;16.57;63.52;101490.34;5099425;27;47099;-80
2022/05/03 00:16:40;;;;;;;;;35.50;31.25;;;;;16.54;63.47;101493.00;5100056;27;45455;-80
2022/05/03 00:19:06;;;;;;;;;33.25;30.50;;;;;16.53;63.70;101495.69;5099874;27;45433;-80
2022/05/03 00:21:35;;;;;;;;;40.50;34.00;;;;;16.50;65.00;101492.13;5100040;27;45350;-77
2022/05/03 00:24:01;;;;;;;;;38.25;34.00;;;;;16.48;63.94;101485.94;5099610;27;47672;-79
2022/05/03 00:26:28;;;;;;;;;33.25;31.25;;;;;16.48;63.76;101485.03;5099704;27;45206;-79
2022/05/03 00:28:56;;;;;;;;;41.75;33.25;;;;;16.45;64.26;101480.59;5099915;27;45203;-80
2022/05/03 00:31:23;;;;;;;;;39.00;33.75;;;;;16.39;64.29;101479.72;5081599;27;45410;-80
2022/05/03 00:33:48;;;;;;;;;35.50;31.75;;;;;16.38;64.61;101485.94;5098297;27;47447;-79
2022/05/03 00:36:13;;;;;;;;;40.50;34.00;;;;;16.31;64.83;101471.75;5060910;28;45415;-80
2022/05/03 00:38:39;;;;;;;;;39.50;34.50;;;;;16.30;64.64;101480.66;5079006;28;45470;-80
2022/05/03 00:41:05;;;;;;;;;44.50;34.75;;;;;16.30;65.12;101472.66;5090275;27;45334;-79
2022/05/03 00:43:43;;;;;;;;;41.25;34.75;;;;;16.28;64.88;101481.53;5098041;27;47292;-80
2022/05/03 00:46:17;;;;;;;;;41.25;33.50;;;;;16.23;64.72;101474.44;5099422;27;45320;-79
2022/05/03 00:49:15;;;;;;;;;37.25;33.00;;;;;16.19;65.00;101477.09;5099432;27;45185;-79
2022/05/03 00:51:40;;;;;;;;;38.00;32.00;;;;;16.15;65.04;101478.00;5099649;27;45415;-79
2022/05/03 00:54:17;;;;;;;;;46.75;36.25;;;;;16.10;65.80;101469.13;5099038;27;46437;-80
2022/05/03 00:56:57;;;;;;;;;39.25;34.50;;;;;16.09;65.52;101472.69;5097934;27;45334;-80
2022/05/03 00:59:46;;;;;;;;;45.50;36.25;;;;;16.07;66.03;101475.34;5104483;27;45253;-79
2022/05/03 01:02:14;;;;;;;;;43.75;37.00;;;;;16.03;65.73;101470.91;5091294;27;45504;-79
2022/05/03 01:04:50;;;;;;;;;44.00;35.00;;;;;16.03;66.27;101467.34;5078471;27;47261;-78
2022/05/03 01:07:33;;;;;;;;;40.00;34.25;;;;;16.02;66.56;101470.91;5060301;28;45282;-79
2022/05/03 01:10:17;;;;;;;;;40.25;35.50;;;;;16.00;66.40;101470.91;5073980;27;45386;-79
2022/05/03 01:13:04;;;;;;;;;40.00;35.00;;;;;15.97;66.48;101466.47;5099123;27;46388;-80
2022/05/03 01:15:38;;;;;;;;;39.25;35.00;;;;;15.95;67.01;101467.38;5097364;27;47429;-80
2022/05/03 01:18:15;;;;;;;;;40.00;34.00;;;;;15.94;66.48;101474.47;5098784;27;45288;-79
2022/05/03 01:20:53;;;;;;;;;43.50;34.75;;;;;15.91;66.45;101463.81;5098816;27;45314;-79
2022/05/03 01:23:50;;;;;;;;;40.00;33.50;;;;;15.90;67.79;101463.81;5099003;27;45561;-79
2022/05/03 01:26:48;;;;;;;;;38.25;34.00;;;;;15.89;66.43;101475.38;5080645;27;45881;-79
2022/05/03 01:29:32;;;;;;;;;35.25;32.00;;;;;15.88;66.64;101465.63;5098716;27;45446;-79
2022/05/03 01:32:06;;;;;;;;;46.00;34.00;;;;;15.87;66.46;101461.16;5098563;27;45423;-78
2022/05/03 01:34:32;;;;;;;;;32.75;32.00;;;;;15.83;66.66;101454.06;5092494;27;45619;-79
2022/05/03 01:37:00;;;;;;;;;39.75;34.25;;;;;15.85;66.97;101458.50;5078189;28;47361;-78
2022/05/03 01:39:34;;;;;;;;;41.00;34.00;;;;;15.84;66.66;101455.84;5078005;28;45426;-80
2022/05/03 01:42:12;;;;;;;;;39.50;35.25;;;;;15.81;67.57;101451.41;5096983;27;45315;-79
2022/05/03 01:44:46;;;;;;;;;41.00;35.00;;;;;15.81;66.80;101463.81;5097505;27;45465;-80
2022/05/03 01:47:11;;;;;;;;;39.50;35.50;;;;;15.80;67.24;101473.59;5080026;27;46654;-79
2022/05/03 01:53:02;;;;;;;;;38.00;33.75;;;;;15.76;67.04;101457.59;5097531;27;45277;-79
2022/05/03 01:56:05;;;;;;;;;40.25;34.00;;;;;15.75;67.63;101453.19;5098439;27;45188;-80
2022/05/03 01:58:54;;;;;;;;;46.25;35.25;;;;;15.73;67.76;101452.31;5095975;27;46793;-79
2022/05/03 02:01:19;;;;;;;;;37.00;32.00;;;;;15.71;67.71;101447.88;5113013;27;45326;-79
2022/05/03 02:03:50;;;;;;;;;42.00;36.25;;;;;15.69;67.50;101448.75;5077831;28;45456;-79
2022/05/03 02:06:19;;;;;;;;;35.50;31.00;;;;;15.70;66.90;101448.72;5077658;28;45519;-79
2022/05/03 02:08:57;;;;;;;;;34.75;30.75;;;;;15.70;67.68;101446.06;5062927;27;47429;-79
2022/05/03 02:11:26;;;;;;;;;36.25;29.50;;;;;15.71;67.10;101446.97;5079874;27;45363;-79
2022/05/03 02:16:58;;;;;;;;;39.50;32.00;;;;;15.69;67.54;101451.41;5081228;27;45434;-78
2022/05/03 02:19:29;;;;;;;;;35.25;30.75;;;;;15.66;67.40;101451.44;5098085;27;46393;-79
2022/05/03 02:22:07;;;;;;;;;32.75;31.00;;;;;15.64;67.24;101448.75;5097919;27;45350;-78
2022/05/03 02:24:53;;;;;;;;;43.75;33.25;;;;;15.61;67.61;101454.06;5098002;27;45434;-79
2022/05/03 02:27:19;;;;;;;;;33.00;31.75;;;;;15.59;68.26;101455.81;5097988;27;45313;-79
2022/05/03 02:29:47;;;;;;;;;41.00;33.25;;;;;15.57;68.69;101459.38;5079229;27;52557;-79
2022/05/03 02:32:16;;;;;;;;;41.50;32.00;;;;;15.52;68.59;101459.34;5097190;27;45374;-79
2022/05/03 02:34:59;;;;;;;;;37.50;29.00;;;;;15.47;68.92;101466.44;5072090;28;45255;-79
2022/05/03 02:37:34;;;;;;;;;36.75;30.25;;;;;15.41;69.45;101463.78;5077420;28;45318;-79
2022/05/03 02:40:03;;;;;;;;;34.00;29.00;;;;;15.34;69.71;101464.63;5079390;27;47467;-79
2022/05/03 02:42:28;;;;;;;;;33.50;28.25;;;;;15.30;70.15;101462.88;5094028;27;45497;-78
2022/05/03 02:45:00;;;;;;;;;31.75;30.50;;;;;15.27;70.33;101462.88;5086218;27;45523;-80
2022/05/03 02:47:33;;;;;;;;;36.75;33.00;;;;;15.23;70.94;101461.06;5077350;28;45514;-79
2022/05/03 02:50:21;;;;;;;;;34.75;32.50;;;;;15.22;71.24;101461.97;5077467;28;46385;-79
2022/05/03 02:53:08;;;;;;;;;35.75;32.75;;;;;15.20;71.27;101465.53;5086755;27;45443;-79
2022/05/03 02:55:50;;;;;;;;;34.25;32.00;;;;;15.16;71.10;101460.19;5079294;27;45352;-79
2022/05/03 02:58:45;;;;;;;;;33.75;30.25;;;;;15.15;71.64;101459.31;5097149;27;45212;-79
2022/05/03 03:04:03;;;;;;;;;33.75;31.25;;;;;15.04;72.75;101462.81;5100965;27;45260;-78
2022/05/03 03:06:37;;;;;;;;;31.75;28.75;;;;;15.03;72.65;101461.06;5101004;27;45664;-79
2022/05/03 03:09:03;;;;;;;;;36.25;32.00;;;;;15.00;72.64;101463.69;5100995;27;45436;-79
2022/05/03 03:11:33;;;;;;;;;35.50;32.50;;;;;15.01;72.88;101460.16;5100699;27;46998;-78
2022/05/03 03:14:33;;;;;;;;;37.00;33.00;;;;;15.01;72.65;101465.47;5101027;27;45208;-79
2022/05/03 03:17:01;;;;;;;;;35.00;32.25;;;;;15.02;72.64;101464.56;5100841;27;45486;-80
2022/05/03 03:19:33;;;;;;;;;38.50;32.00;;;;;15.04;72.52;101466.38;5101181;27;45327;-78
2022/05/03 03:22:01;;;;;;;;;44.75;36.25;;;;;15.03;72.76;101469.91;5100994;27;45902;-78
2022/05/03 03:24:29;;;;;;;;;41.00;33.75;;;;;15.05;72.91;101464.59;5082451;27;45520;-78
2022/05/03 03:26:57;;;;;;;;;35.25;31.25;;;;;15.05;72.52;101460.16;5100883;27;45192;-78
2022/05/03 03:29:24;;;;;;;;;35.75;33.00;;;;;15.06;72.82;101458.38;5100791;27;45473;-79
2022/05/03 03:31:51;;;;;;;;;34.75;29.75;;;;;15.07;73.05;101466.34;5099196;27;46293;-78
2022/05/03 03:34:19;;;;;;;;;37.50;31.25;;;;;15.06;72.71;101459.28;5077914;28;45229;-79
2022/05/03 03:36:45;;;;;;;;;38.00;32.75;;;;;15.08;72.89;101457.53;5062087;28;45364;-79
2022/05/03 03:39:10;;;;;;;;;38.25;33.75;;;;;15.07;73.17;101445.09;5078947;28;45520;-79
2022/05/03 03:41:36;;;;;;;;;40.50;32.25;;;;;15.10;72.54;101453.09;5095487;27;45643;-78
2022/05/03 03:44:03;;;;;;;;;41.75;34.50;;;;;15.09;72.41;101446.00;5100121;27;50203;-79
2022/05/03 03:46:29;;;;;;;;;44.00;32.75;;;;;15.11;72.87;101448.66;5082725;27;45376;-78
2022/05/03 03:48:54;;;;;;;;;36.00;28.50;;;;;15.12;73.03;101443.31;5100393;27;45309;-78
2022/05/03 03:51:20;;;;;;;;;36.75;32.00;;;;;15.11;72.38;101446.00;5100384;27;45769;-80
2022/05/03 03:53:46;;;;;;;;;37.25;34.00;;;;;15.11;72.52;101449.53;5100032;27;47979;-79
2022/05/03 03:56:12;;;;;;;;;34.75;32.75;;;;;15.11;72.87;101440.66;5081864;27;45390;-79
2022/05/03 03:58:37;;;;;;;;;42.00;34.50;;;;;15.12;72.87;101451.31;5096927;27;45501;-79
2022/05/03 04:01:03;;;;;;;;;41.25;32.25;;;;;15.13;72.68;101439.81;5098710;27;47976;-79
2022/05/03 04:03:28;;;;;;;;;40.50;34.00;;;;;15.13;72.80;101445.13;5081938;27;45261;-78
2022/05/03 04:05:54;;;;;;;;;43.50;34.25;;;;;15.14;73.00;101457.53;5078342;28;45275;-78
2022/05/03 04:08:19;;;;;;;;;42.25;33.50;;;;;15.13;73.32;101444.25;5077104;27;45220;-78
2022/05/03 04:10:45;;;;;;;;;37.25;29.75;;;;;15.11;72.79;101446.88;5088016;27;47643;-79
2022/05/03 04:13:16;;;;;;;;;40.00;33.00;;;;;15.11;72.74;101446.88;5079310;27;45210;-79
2022/05/03 04:15:42;;;;;;;;;43.00;34.25;;;;;15.12;72.81;101453.06;5061804;28;45234;-78
2022/05/03 04:18:07;;;;;;;;;43.75;35.25;;;;;15.12;72.50;101451.31;5061660;28;45482;-78
2022/05/03 04:20:33;;;;;;;;;43.75;34.75;;;;;15.11;73.25;101453.97;5079175;28;46564;-79
2022/05/03 04:22:59;;;;;;;;;36.50;31.50;;;;;15.12;72.76;101456.63;5061016;28;45283;-79
2022/05/03 04:25:24;;;;;;;;;41.25;32.25;;;;;15.11;72.76;101456.63;5079149;28;45278;-78
2022/05/03 04:27:49;;;;;;;;;40.25;33.25;;;;;15.14;72.56;101454.00;5079450;28;45643;-78
2022/05/03 04:30:15;;;;;;;;;38.50;32.50;;;;;15.12;72.78;101447.75;5079102;28;46713;-78
2022/05/03 04:32:40;;;;;;;;;31.25;29.50;;;;;15.09;72.73;101446.00;5092045;27;45380;-79
2022/05/03 04:35:06;;;;;;;;;37.50;31.25;;;;;15.08;72.82;101449.53;5088882;27;45346;-78
2022/05/03 04:37:32;;;;;;;;;38.50;31.25;;;;;15.04;72.54;101450.41;5079363;28;45466;-79
2022/05/03 04:39:57;;;;;;;;;35.75;30.75;;;;;14.98;73.07;101461.03;5079895;27;45755;-78
2022/05/03 04:42:23;;;;;;;;;43.00;34.75;;;;;14.93;73.39;101462.78;5098976;27;45363;-79
2022/05/03 04:44:48;;;;;;;;;34.50;30.00;;;;;14.88;75.82;101460.13;5099556;27;45224;-79
2022/05/03 04:47:14;;;;;;;;;46.25;33.75;;;;;14.86;74.06;101460.97;5099453;27;45458;-78
2022/05/03 04:49:39;;;;;;;;;44.50;34.75;;;;;14.81;74.05;101457.44;5099430;27;47553;-78
2022/05/03 04:52:05;;;;;;;;;44.50;35.00;;;;;14.78;73.94;101457.41;5099413;27;45486;-79
2022/05/03 04:54:30;;;;;;;;;35.75;31.75;;;;;14.75;74.86;101457.41;5099389;27;45311;-78
2022/05/03 04:57:03;;;;;;;;;41.00;35.00;;;;;14.70;74.64;101451.16;5099131;27;45363;-79
2022/05/03 04:59:29;;;;;;;;;29.75;27.75;;;;;14.70;74.72;101464.47;5084427;27;47867;-79
2022/05/03 05:01:54;;;;;;;;;45.75;33.25;;;;;14.67;75.51;101462.69;5078636;28;45242;-78
2022/05/03 05:04:20;;;;;;;;;39.50;33.50;;;;;14.64;75.37;101471.53;5078936;28;45394;-78
2022/05/03 05:06:45;;;;;;;;;38.00;33.25;;;;;14.63;75.33;101472.41;5216167;22;46442;-79
2022/05/03 05:09:10;;;;;;;;;39.50;34.75;;;;;14.63;75.75;101467.09;5119300;27;46330;-79
2022/05/03 05:11:36;;;;;;;;;41.25;35.25;;;;;14.60;75.67;101474.19;5119199;27;53999;-79
2022/05/03 05:14:01;;;;;;;;;39.00;33.50;;;;;14.59;76.19;101478.59;5119661;27;45386;-79
2022/05/03 05:16:27;;;;;;;;;40.25;33.50;;;;;14.58;76.57;101478.59;5118332;27;45453;-80
2022/05/03 05:18:52;;;;;;;;;40.00;35.50;;;;;14.57;76.64;101482.13;5118984;27;48030;-80
2022/05/03 05:21:18;;;;;;;;;43.25;33.25;;;;;14.55;76.76;101479.47;5118224;27;45432;-79
2022/05/03 05:23:43;;;;;;;;;45.50;35.50;;;;;14.58;76.77;101484.78;5119484;27;45764;-79
2022/05/03 05:26:08;;;;;;;;;38.50;35.25;;;;;14.62;76.64;101483.94;5119465;27;45203;-78
2022/05/03 05:28:34;;;;;;;;;38.75;33.00;;;;;14.65;76.63;101486.63;5119388;27;46798;-80
2022/05/03 05:30:59;;;;;;;;;43.00;35.50;;;;;14.72;76.96;101484.88;5119177;27;45342;-79
2022/05/03 05:33:25;;;;;;;;;44.00;35.50;;;;;14.79;75.96;101485.78;5119218;27;45858;-79
2022/05/03 05:35:51;;;;;;;;;42.25;34.00;;;;;14.83;76.34;101483.13;5119258;27;45374;-79
2022/05/03 05:38:17;;;;;;;;;44.50;35.50;;;;;14.89;76.57;101490.25;5118847;27;47328;-79
2022/05/03 05:40:43;;;;;;;;;44.50;35.00;;;;;14.93;76.48;101486.72;5118869;27;45366;-79
2022/05/03 05:43:09;;;;;;;;;38.75;32.75;;;;;14.96;76.24;101492.03;5119025;27;45299;-78
2022/05/03 05:45:34;;;;;;;;;35.25;33.50;;;;;15.00;75.86;101490.28;5119278;27;45145;-79
2022/05/03 05:48:00;;;;;;;;;37.00;33.50;;;;;15.03;75.86;101493.84;5118950;27;46526;-79
2022/05/03 05:50:25;;;;;;;;;43.75;35.25;;;;;15.02;76.04;101488.50;5117864;27;45230;-79
2022/05/03 05:55:36;;;;;;;;;40.50;33.50;;;;;15.13;75.80;101494.78;5105810;27;45232;-78
2022/05/03 05:58:05;;;;;;;;;41.75;33.75;;;;;15.20;76.06;101504.53;5118381;27;45910;-80
2022/05/03 06:00:32;;;;;;;;;42.50;35.25;;;;;15.20;76.07;101499.22;5118907;27;45282;-79
2022/05/03 06:02:58;;;;;;;;;46.25;37.50;;;;;15.23;75.56;101506.31;5118720;27;45259;-80
2022/05/03 06:05:23;;;;;;;;;42.00;34.00;;;;;15.22;75.38;101497.44;5100445;27;45264;-79
2022/05/03 06:07:48;;;;;;;;;43.50;36.00;;;;;15.26;76.17;101512.53;5118640;27;47516;-78
2022/05/03 06:10:14;;;;;;;;;41.75;36.00;;;;;15.27;75.45;101502.78;5118187;27;52156;-79
2022/05/03 06:12:39;;;;;;;;;45.00;38.00;;;;;15.31;75.76;101500.13;5118744;27;45199;-79
2022/05/03 06:15:05;;;;;;;;;44.75;36.50;;;;;15.37;75.75;101504.56;5119003;27;45578;-78
2022/05/03 06:17:31;;;;;;;;;46.25;36.00;;;;;15.39;75.23;101510.78;5118404;27;45725;-79
2022/05/03 06:19:56;;;;;;;;;48.25;36.00;;;;;15.43;75.61;101505.47;5118711;27;45334;-79
2022/05/03 06:22:21;;;;;;;;;50.25;38.00;;;;;15.49;75.25;101506.38;5118595;27;45162;-79
2022/05/03 06:24:47;;;;;;;;;45.75;35.50;;;;;15.52;75.23;101506.38;5119000;27;45145;-79
2022/05/03 06:27:16;;;;;;;;;44.50;35.75;;;;;15.53;75.17;101503.72;5118236;27;46432;-79
2022/05/03 06:29:42;;;;;;;;;44.25;37.25;;;;;15.61;75.17;101511.72;5118363;27;45483;-79
2022/05/03 06:32:10;;;;;;;;;40.50;34.50;;;;;15.66;75.33;101515.31;5117384;27;45363;-79
2022/05/03 06:34:36;;;;;;;;;40.50;33.00;;;;;15.68;76.56;101511.75;5118213;27;45214;-80
2022/05/03 06:37:01;;;;;;;;;45.00;35.50;;;;;15.73;74.55;101519.75;5118210;27;46664;-79
2022/05/03 06:39:27;;;;;;;;;41.00;33.25;;;;;15.77;75.05;101518.00;5117020;27;45417;-79
2022/05/03 06:41:52;;;;;;;;;45.25;34.00;;;;;15.85;74.63;101517.09;5118034;27;45437;-80
2022/05/03 06:44:18;;;;;;;;;40.00;32.00;;;;;15.96;74.97;101520.63;5118221;27;45583;-79
2022/05/03 06:46:44;;;;;;;;;45.50;34.50;;;;;16.04;74.60;101509.13;5118014;27;45402;-79
2022/05/03 06:49:10;;;;;;;;;44.00;33.25;;;;;16.12;74.48;101520.63;5118333;27;45386;-80
2022/05/03 06:51:36;;;;;;;;;35.25;32.00;;;;;16.17;74.25;101522.41;5118391;27;45532;-79
2022/05/03 06:54:02;;;;;;;;;41.25;32.50;;;;;16.20;74.40;101522.41;5118351;27;45262;-79
2022/05/03 06:56:28;;;;;;;;;40.75;33.25;;;;;16.22;74.04;101523.28;5117674;27;45621;-80
2022/05/03 06:58:53;;;;;;;;;42.50;34.25;;;;;16.24;74.04;101520.63;5117820;27;45481;-79
2022/05/03 07:01:18;;;;;;;;;44.50;36.50;;;;;16.28;73.82;101518.84;5118315;27;45346;-80
2022/05/03 07:03:44;;;;;;;;;44.25;35.25;;;;;16.30;73.58;101517.97;5116894;27;45594;-79
2022/05/03 07:06:09;;;;;;;;;41.00;33.75;;;;;16.29;73.01;101523.28;5117432;27;52092;-80
2022/05/03 07:08:35;;;;;;;;;40.75;34.50;;;;;16.30;73.51;101525.03;5117669;27;45468;-79
2022/05/03 07:11:01;;;;;;;;;39.50;33.00;;;;;16.28;73.34;101524.16;5117832;27;45235;-79
2022/05/03 07:13:28;;;;;;;;;43.50;32.75;;;;;16.27;73.54;101523.28;5099862;27;45169;-80
2022/05/03 07:15:55;;;;;;;;;34.50;31.50;;;;;16.26;73.58;101513.53;5117803;27;47619;-80
2022/05/03 07:23:50;;;;;;;;;40.25;33.25;;;;;16.35;73.42;101526.84;5118187;27;45322;-80
2022/05/03 07:26:15;;;;;;;;;39.00;32.50;;;;;16.40;73.44;101518.81;5117788;27;48353;-80
2022/05/03 07:28:41;;;;;;;;;40.75;33.75;;;;;16.45;73.17;101520.56;5116223;27;45414;-79
2022/05/03 07:31:08;;;;;;;;;38.25;33.50;;;;;16.50;72.77;101524.13;5117455;27;45273;-80
2022/05/03 07:33:34;;;;;;;;;44.00;34.00;;;;;16.59;72.26;101525.00;5098933;27;45259;-80
2022/05/03 07:35:59;;;;;;;;;31.75;31.25;;;;;16.64;72.38;101526.75;5117167;27;45763;-79
2022/05/03 07:38:25;;;;;;;;;30.50;28.75;;;;;16.71;72.06;101530.31;5117492;27;45233;-79
2022/05/03 07:40:50;;;;;;;;;37.00;30.25;;;;;16.79;72.00;101530.31;5116934;27;45179;-80
2022/05/03 07:43:15;;;;;;;;;36.00;31.00;;;;;16.87;71.79;101528.50;5119825;27;45309;-79
2022/05/03 07:45:41;;;;;;;;;43.00;34.00;;;;;16.97;71.58;101527.56;5120857;27;51389;-79
2022/05/03 07:48:06;;;;;;;;;38.50;31.00;;;;;17.06;71.31;101527.53;5102211;27;50680;-80
2022/05/03 07:50:32;;;;;;;;;35.50;31.00;;;;;17.12;70.46;101529.28;5121181;27;45149;-81
2022/05/03 07:52:58;;;;;;;;;37.25;32.50;;;;;17.20;70.59;101532.78;5121194;27;45531;-80
2022/05/03 07:55:23;;;;;;;;;37.50;30.50;;;;;17.26;70.45;101543.47;5120037;27;47381;-79
2022/05/03 07:57:48;;;;;;;;;31.25;28.00;;;;;17.33;70.14;101542.53;5120698;27;45209;-79
2022/05/03 08:00:14;;;;;;;;;35.75;31.75;;;;;17.37;69.66;101543.41;5120624;27;47778;-80
2022/05/03 08:02:40;;;;;;;;;34.75;28.25;;;;;17.40;69.44;101538.03;5120931;27;45481;-81
2022/05/03 08:05:07;;;;;;;;;35.25;31.00;;;;;17.43;69.31;101536.22;5120633;27;47453;-80
2022/05/03 08:07:34;;;;;;;;;36.50;30.75;;;;;17.50;69.27;101542.41;5102333;27;45362;-79
2022/05/03 08:10:00;;;;;;;;;38.75;33.00;;;;;17.54;68.75;101538.84;5120552;27;45276;-78
2022/05/03 08:12:26;;;;;;;;;31.00;28.50;;;;;17.59;69.29;101541.47;5120904;27;45254;-80
2022/05/03 08:14:52;;;;;;;;;30.75;30.00;;;;;17.65;69.07;101541.44;5120287;27;46826;-80
2022/05/03 08:17:17;;;;;;;;;35.00;30.25;;;;;17.71;68.70;101541.38;5120306;27;45279;-80
2022/05/03 08:19:42;;;;;;;;;28.75;26.50;;;;;17.75;68.52;101544.06;5120560;27;45430;-79
2022/05/03 08:22:08;;;;;;;;;34.75;30.25;;;;;17.83;68.00;101538.66;5120686;27;45554;-79
2022/05/03 08:24:33;;;;;;;;;34.00;30.50;;;;;17.89;67.74;101541.28;5120175;27;46498;-80
2022/05/03 08:26:59;;;;;;;;;39.50;31.50;;;;;17.97;67.60;101542.13;5120147;27;49687;-80
2022/05/03 08:29:27;;;;;;;;;38.25;31.75;;;;;18.03;68.13;101541.19;5120528;27;45344;-80
2022/05/03 08:31:52;;;;;;;;;32.50;29.75;;;;;18.11;67.45;101543.78;5120204;27;45313;-80
2022/05/03 08:34:18;;;;;;;;;39.75;31.50;;;;;18.17;67.27;101541.06;5119893;27;47271;-79
2022/05/03 08:42:01;;;;;;;;;32.50;29.50;;;;;18.23;66.83;101541.88;5120229;27;45407;-80
2022/05/03 08:42:15;;;;;;;;;33.75;29.25;;;;;18.29;66.40;101541.81;5116512;27;45392;-80
2022/05/03 08:44:40;;;;;;;;;32.50;29.75;;;;;18.29;66.13;101544.50;5119956;27;47577;-79
2022/05/03 08:47:06;;;;;;;;;33.75;30.25;;;;;18.29;65.83;101538.28;5119791;27;50693;-79
2022/05/03 08:50:10;;;;;;;;;31.25;28.25;;;;;18.31;65.46;101545.34;5120132;27;45142;-79
2022/05/03 08:52:42;;;;;;;;;32.00;28.50;;;;;18.32;65.45;101536.47;5120508;27;45576;-80
2022/05/03 08:55:11;;;;;;;;;34.00;29.75;;;;;18.34;65.58;101541.78;5087127;27;46357;-81
2022/05/03 08:57:37;;;;;;;;;33.25;26.25;;;;;18.36;66.06;101539.09;5119878;27;45440;-79
2022/05/03 09:00:05;;;;;;;;;30.25;29.00;;;;;18.38;65.41;101540.88;5119948;27;45267;-80
2022/05/03 09:02:32;;;;;;;;;26.50;26.50;;;;;18.38;64.77;101546.22;5119935;27;45552;-79
2022/05/03 09:04:57;;;;;;;;;30.50;28.50;;;;;18.40;64.88;101544.41;5101008;27;46106;-80
2022/05/03 09:07:24;;;;;;;;;31.25;29.25;;;;;18.39;63.94;101539.06;5119551;27;45286;-81
2022/05/03 09:09:50;;;;;;;;;32.75;26.00;;;;;18.39;64.61;101541.75;5119660;27;45213;-80
2022/05/03 09:12:30;;;;;;;;;30.50;27.00;;;;;18.39;64.60;101547.97;5123683;27;45436;-80
2022/05/03 09:15:00;;;;;;;;;33.25;26.25;;;;;18.42;64.43;101541.69;5119517;27;47172;-80
2022/05/03 09:17:40;;;;;;;;;29.50;26.75;;;;;18.44;64.76;101540.81;5119410;27;45253;-79
2022/05/03 09:26:20;;;;;;;;;29.00;27.00;;;;;18.58;64.67;101546.88;5119802;27;45713;-80
2022/05/03 09:28:50;;;;;;;;;30.25;26.00;;;;;18.67;64.54;101548.56;5119376;27;45170;-81
2022/05/03 09:31:34;;;;;;;;;31.00;28.00;;;;;18.78;64.58;101546.69;5119679;27;45546;-79
2022/05/03 09:34:02;;;;;;;;;37.75;30.75;;;;;18.88;64.04;101541.25;5119251;27;45627;-79
2022/05/03 09:36:28;;;;;;;;;27.25;25.50;;;;;18.98;63.44;101543.78;5119498;27;47598;-79
2022/05/03 09:38:55;;;;;;;;;35.50;26.50;;;;;19.07;63.58;101550.84;5119195;27;45308;-79
2022/05/03 09:41:21;;;;;;;;;31.25;28.50;;;;;19.13;63.55;101540.03;5119262;27;45327;-80
2022/05/03 09:44:02;;;;;;;;;26.25;26.25;;;;;19.25;63.06;101537.19;5118918;27;45301;-80
2022/05/03 09:46:29;;;;;;;;;30.50;29.25;;;;;19.34;62.78;101537.06;5119078;27;46957;-80
2022/05/03 09:48:55;;;;;;;;;25.50;24.75;;;;;19.44;62.62;101537.84;5119013;27;45575;-80
2022/05/03 09:51:22;;;;;;;;;27.25;24.25;;;;;19.53;62.17;101537.69;5119335;27;45406;-81
2022/05/03 09:54:00;;;;;;;;;30.25;23.25;;;;;19.57;61.83;101526.00;5118991;27;45208;-80
2022/05/03 09:56:27;;;;;;;;;25.50;24.50;;;;;19.63;61.95;101527.75;5118726;27;46612;-80
2022/05/03 09:59:06;;;;;;;;;24.50;21.00;;;;;19.66;61.46;101533.06;5118666;27;45349;-79
2022/05/03 10:01:34;;;;;;;;;29.75;24.25;;;;;19.63;61.67;101523.28;5118955;27;45234;-80
2022/05/03 10:04:00;;;;;;;;;24.25;22.75;;;;;19.58;61.59;101534.94;5100423;27;45295;-80
2022/05/03 10:06:26;;;;;;;;;26.67;22.67;;;;;19.55;62.28;101524.28;5117205;27;45871;-78
2022/05/03 10:08:52;;;;;;;;;24.75;22.50;;;;;19.53;61.48;101535.00;5100320;27;45465;-79
2022/05/03 10:11:18;;;;;;;;;29.33;24.67;;;;;19.53;62.47;101520.72;5119052;27;45310;-79
2022/05/03 10:13:45;;;;;;;;;24.67;20.67;;;;;19.53;62.18;101518.03;5118994;27;45226;-81
2022/05/03 10:21:49;;;;;;;;;18.50;18.50;;;;;19.56;62.25;101518.00;5118706;27;45393;-80
2022/05/03 10:24:15;;;;;;;;;19.33;18.33;;;;;19.57;62.14;101509.06;5118322;27;45208;-80
2022/05/03 10:26:52;;;;;;;;;26.67;23.67;;;;;19.61;62.11;101517.06;5118295;27;47344;-80
2022/05/03 10:29:19;;;;;;;;;22.67;21.67;;;;;19.65;62.90;101515.19;5118338;27;45194;-80
2022/05/03 10:32:06;;;;;;;;;24.00;20.00;;;;;19.69;61.80;101508.00;5118620;27;45300;-80
2022/05/03 10:35:01;;;;;;;;;22.67;21.00;;;;;19.74;61.97;101509.72;5118455;27;45415;-79
2022/05/03 10:37:28;;;;;;;;;29.00;23.67;;;;;19.77;61.07;101515.03;5118184;27;46613;-80
2022/05/03 10:39:58;;;;;;;;;23.00;23.00;;;;;19.81;60.71;101515.84;5118279;27;45476;-80
2022/05/03 10:42:25;;;;;;;;;23.00;17.33;;;;;19.81;60.45;101508.69;5118286;27;45204;-79
2022/05/03 10:44:53;;;;;;;;;19.33;16.67;;;;;19.86;60.23;101509.50;5116966;27;45566;-79
2022/05/03 10:47:21;;;;;;;;;26.33;19.33;;;;;19.87;59.46;101508.63;5117966;27;46508;-80
2022/05/03 10:50:15;;;;;;;;;24.33;17.67;;;;;19.94;59.63;101505.81;5118299;27;45238;-80
2022/05/03 10:52:58;;;;;;;;;18.67;18.33;;;;;20.01;59.53;101496.75;5118344;27;45330;-81
2022/05/03 10:55:25;;;;;;;;;13.00;13.00;;;;;20.09;59.97;101506.44;5117816;27;45321;-79
2022/05/03 10:58:19;;;;;;;;;17.33;16.33;;;;;20.20;59.70;101502.69;5118058;27;47471;-80
2022/05/03 11:01:17;;;;;;;;;17.33;14.33;;;;;20.28;59.35;101503.41;5106685;27;45164;-80
2022/05/03 11:03:48;;;;;;;;;17.00;15.67;;;;;20.35;58.64;101497.06;5118060;27;45281;-80
2022/05/03 11:06:20;;;;;;;;;17.67;14.67;;;;;20.42;57.13;101502.25;5117813;27;45231;-80
2022/05/03 11:08:57;;;;;;;;;15.67;15.67;;;;;20.48;56.62;101487.00;5117577;27;45754;-79
2022/05/03 11:11:38;;;;;;;;;23.33;17.67;;;;;20.54;56.76;101495.78;5117736;27;45302;-81
2022/05/03 11:14:22;;;;;;;;;17.00;15.00;;;;;20.65;56.18;101488.41;5117971;27;45162;-81
2022/05/03 11:17:12;;;;;;;;;14.33;11.67;;;;;20.78;54.98;101489.06;5117923;27;45557;-81
2022/05/03 11:19:56;;;;;;;;;12.33;10.00;;;;;20.87;54.68;101487.97;5121135;27;46566;-80
2022/05/03 11:22:27;;;;;;;;;12.33;12.33;;;;;20.95;53.41;101490.50;5121288;27;45320;-78
2022/05/03 11:24:55;;;;;;;;;14.33;12.00;;;;;21.03;53.85;101491.22;5121437;27;45450;-80
2022/05/03 11:27:21;;;;;;;;;11.67;10.00;;;;;21.06;52.39;101483.97;5121533;27;45335;-81
2022/05/03 11:29:56;;;;;;;;;14.33;11.67;;;;;21.07;53.24;101485.75;5121179;27;46655;-80
2022/05/03 11:32:39;;;;;;;;;12.67;11.33;;;;;21.14;53.59;101484.69;5120775;27;45619;-80
2022/05/03 11:35:13;;;;;;;;;12.33;11.67;;;;;21.23;52.17;101483.59;5121328;27;45403;-80
2022/05/03 11:37:49;;;;;;;;;9.67;9.67;;;;;21.32;51.44;101483.44;5121066;27;45583;-81
2022/05/03 11:40:15;;;;;;;;;12.00;10.33;;;;;21.42;50.65;101474.25;5121222;27;47457;-80
2022/05/03 11:42:44;;;;;;;;;9.33;9.33;;;;;21.55;51.12;101474.81;5120703;27;45324;-79
2022/05/03 11:45:12;;;;;;;;;10.67;9.00;;;;;21.64;49.72;101479.09;5121109;27;45347;-79
2022/05/03 11:47:42;;;;;;;;;11.33;10.00;;;;;21.76;49.62;101468.03;5121100;27;45376;-81
2022/05/03 11:50:09;;;;;;;;;9.67;9.67;;;;;21.84;47.98;101463.34;5120902;27;46493;-80
2022/05/03 11:58:03;;;;;;;;;8.00;8.00;;;;;22.15;48.58;101460.75;5121084;27;45291;-80
2022/05/03 12:00:28;;;;;;;;;8.33;8.00;;;;;22.23;48.39;101455.19;5102425;27;46890;-80